Time;durP1;ratioP1;P1;durP2;ratioP2;P2;SDS_P1;SDS_P2;PMS_P1;PMS_P2;Temp;Humidity;BMP_temperature;BMP_pressure;BME280_temperature;BME280_humidity;BME280_pressure;Samples;Min_cycle;Max_cycle;Signal;HPM_P1;HPM_P2
2021/12/07 00:01:12;;;;;;;8.57;3.90;;;;;;;;;;4952196;28;20261;-83
2021/12/07 00:03:39;;;;;;;11.90;6.17;;;;;;;;;;4945276;28;20297;-84
2021/12/07 00:06:08;;;;;;;9.40;4.90;;;;;;;;;;4941523;28;20241;-82
2021/12/07 00:08:35;;;;;;;13.07;5.47;;;;;;;;;;4938889;28;20203;-83
2021/12/07 00:11:03;;;;;;;8.70;4.67;;;;;;;;;;4937954;28;20836;-82
2021/12/07 00:13:36;;;;;;;6.13;3.73;;;;;;;;;;4937151;28;20942;-83
2021/12/07 00:16:03;;;;;;;6.47;3.50;;;;;;;;;;4936121;28;20238;-82
2021/12/07 00:18:30;;;;;;;6.90;3.40;;;;;;;;;;4937917;28;20303;-82
2021/12/07 00:20:58;;;;;;;6.37;3.60;;;;;;;;;;4939453;28;20873;-81
2021/12/07 00:23:25;;;;;;;6.47;3.57;;;;;;;;;;4938184;28;20357;-83
2021/12/07 00:25:52;;;;;;;6.87;3.53;;;;;;;;;;4939149;28;20316;-83
2021/12/07 00:28:21;;;;;;;6.77;3.53;;;;;;;;;;4946460;28;20290;-82
2021/12/07 00:30:51;;;;;;;5.80;3.33;;;;;;;;;;4955231;28;20222;-83
2021/12/07 00:33:32;;;;;;;6.37;3.13;;;;;;;;;;4935241;28;20213;-83
2021/12/07 00:36:00;;;;;;;6.57;3.27;;;;;;;;;;4942401;28;20665;-82
2021/12/07 00:38:28;;;;;;;5.43;3.10;;;;;;;;;;4941424;28;20708;-81
2021/12/07 00:40:57;;;;;;;5.93;3.20;;;;;;;;;;4940909;28;20618;-81
2021/12/07 00:43:26;;;;;;;6.23;3.57;;;;;;;;;;4939211;28;20262;-81
2021/12/07 00:45:57;;;;;;;6.37;3.90;;;;;;;;;;4939167;28;20648;-82
2021/12/07 00:48:24;;;;;;;12.07;4.63;;;;;;;;;;4940785;28;20210;-82
2021/12/07 00:50:52;;;;;;;6.57;4.00;;;;;;;;;;4941632;28;20293;-82
2021/12/07 00:53:19;;;;;;;7.57;4.37;;;;;;;;;;4938675;28;20248;-82
2021/12/07 00:55:49;;;;;;;8.60;4.60;;;;;;;;;;4938840;28;20230;-82
2021/12/07 00:58:20;;;;;;;9.50;4.77;;;;;;;;;;4941696;28;20317;-82
2021/12/07 01:00:49;;;;;;;8.37;4.90;;;;;;;;;;4946008;28;20214;-82
2021/12/07 01:03:17;;;;;;;8.43;5.00;;;;;;;;;;4941084;28;20313;-82
2021/12/07 01:05:49;;;;;;;11.33;6.40;;;;;;;;;;4944250;28;20233;-81
2021/12/07 01:08:48;;;;;;;12.40;6.93;;;;;;;;;;4945086;28;20574;-80
2021/12/07 01:25:11;;;;;;;12.53;6.37;;;;;;;;;;4950189;28;20225;-80
2021/12/07 01:27:39;;;;;;;15.70;8.53;;;;;;;;;;4952138;28;20315;-81
2021/12/07 01:30:12;;;;;;;16.33;8.97;;;;;;;;;;4947804;29;20220;-81
2021/12/07 01:35:50;;;;;;;18.23;9.70;;;;;;;;;;5110729;27;20575;-80
2021/12/07 01:38:35;;;;;;;15.70;7.90;;;;;;;;;;5108056;28;20274;-84
2021/12/07 01:41:13;;;;;;;18.83;10.10;;;;;;;;;;5104517;28;20211;-82
2021/12/07 01:52:23;;;;;;;20.00;10.10;;;;;;;;;;5101268;28;20226;-83
2021/12/07 01:57:56;;;;;;;21.63;10.40;;;;;;;;;;5104291;28;20205;-81
2021/12/07 02:00:25;;;;;;;21.53;9.33;;;;;;;;;;5103281;28;20726;-81
2021/12/07 02:02:52;;;;;;;16.50;8.50;;;;;;;;;;5100920;28;20451;-83
2021/12/07 02:05:20;;;;;;;17.27;8.30;;;;;;;;;;5107673;28;20596;-82
2021/12/07 02:07:48;;;;;;;21.57;9.30;;;;;;;;;;5106046;28;20261;-82
2021/12/07 02:10:20;;;;;;;22.73;9.43;;;;;;;;;;5111499;28;20686;-82
2021/12/07 02:12:49;;;;;;;21.83;10.00;;;;;;;;;;5101852;28;20209;-82
2021/12/07 02:15:18;;;;;;;17.13;8.73;;;;;;;;;;5102788;28;20229;-82
2021/12/07 02:17:45;;;;;;;16.13;8.27;;;;;;;;;;5109237;28;20237;-80
2021/12/07 02:20:13;;;;;;;17.00;8.23;;;;;;;;;;5105866;28;20202;-82
2021/12/07 02:22:42;;;;;;;17.27;8.77;;;;;;;;;;5112167;27;20201;-77
2021/12/07 02:25:10;;;;;;;20.97;9.17;;;;;;;;;;5114599;27;20245;-81
2021/12/07 02:27:37;;;;;;;18.27;9.23;;;;;;;;;;5105810;28;20659;-82
2021/12/07 02:30:05;;;;;;;16.10;8.23;;;;;;;;;;5106108;27;20240;-81
2021/12/07 02:32:32;;;;;;;16.77;7.47;;;;;;;;;;5107776;28;20231;-79
2021/12/07 02:35:00;;;;;;;17.43;8.97;;;;;;;;;;5101880;28;20253;-81
2021/12/07 02:37:29;;;;;;;17.80;8.77;;;;;;;;;;5099475;28;20278;-82
2021/12/07 02:39:58;;;;;;;15.97;8.50;;;;;;;;;;5103875;28;20251;-81
2021/12/07 02:42:26;;;;;;;20.23;8.63;;;;;;;;;;5101784;28;20664;-82
2021/12/07 02:44:54;;;;;;;16.17;8.13;;;;;;;;;;5102486;28;20808;-83
2021/12/07 02:47:21;;;;;;;17.87;9.00;;;;;;;;;;5088607;28;20292;-83
2021/12/07 02:49:48;;;;;;;20.53;9.07;;;;;;;;;;5085621;28;20581;-81
2021/12/07 02:52:16;;;;;;;19.77;9.20;;;;;;;;;;5088049;28;20286;-81
2021/12/07 02:54:45;;;;;;;19.87;8.97;;;;;;;;;;5087685;28;20304;-81
2021/12/07 02:57:14;;;;;;;16.83;8.17;;;;;;;;;;5089526;28;20694;-82
2021/12/07 02:59:44;;;;;;;16.53;9.17;;;;;;;;;;5087690;28;20742;-82
2021/12/07 03:02:15;;;;;;;15.47;8.07;;;;;;;;;;5084236;28;20202;-82
2021/12/07 03:04:51;;;;;;;18.43;8.53;;;;;;;;;;5084749;28;20636;-82
2021/12/07 03:07:26;;;;;;;16.73;8.10;;;;;;;;;;5082970;28;20217;-81
2021/12/07 03:25:51;;;;;;;20.63;9.07;;;;;;;;;;5087670;28;20221;-82
2021/12/07 03:26:41;;;;;;;10.60;5.53;;;;;;;;;;5087936;28;20204;-82
2021/12/07 03:31:40;;;;;;;8.73;4.73;;;;;;;;;;5036623;28;20219;-79
2021/12/07 03:34:07;;;;;;;7.90;4.10;;;;;;;;;;5035134;28;20415;-79
2021/12/07 03:36:35;;;;;;;7.73;4.03;;;;;;;;;;5037006;28;20225;-79
2021/12/07 03:39:03;;;;;;;6.97;3.50;;;;;;;;;;5033889;28;20228;-78
2021/12/07 03:41:30;;;;;;;4.60;2.43;;;;;;;;;;5037396;28;20485;-78
2021/12/07 03:43:57;;;;;;;2.77;1.50;;;;;;;;;;5035950;28;20645;-79
2021/12/07 03:46:25;;;;;;;5.13;2.30;;;;;;;;;;5037052;28;20231;-78
2021/12/07 03:48:53;;;;;;;3.63;1.60;;;;;;;;;;5036026;28;20279;-78
2021/12/07 03:51:20;;;;;;;2.87;1.40;;;;;;;;;;5038583;28;20258;-79
2021/12/07 03:53:48;;;;;;;3.93;2.20;;;;;;;;;;5033513;28;20293;-79
2021/12/07 03:56:16;;;;;;;2.87;1.70;;;;;;;;;;5034461;28;20304;-79
2021/12/07 03:58:43;;;;;;;4.90;1.63;;;;;;;;;;5029616;28;20199;-79
2021/12/07 04:01:11;;;;;;;2.57;1.80;;;;;;;;;;5027248;28;20632;-79
2021/12/07 04:03:39;;;;;;;3.77;2.60;;;;;;;;;;5028117;28;20226;-79
2021/12/07 04:06:08;;;;;;;3.37;2.30;;;;;;;;;;5032984;28;20220;-80
2021/12/07 04:08:36;;;;;;;4.10;1.90;;;;;;;;;;5042621;28;20280;-78
2021/12/07 04:11:05;;;;;;;2.30;1.50;;;;;;;;;;5033250;28;20274;-80
2021/12/07 04:13:32;;;;;;;1.07;0.70;;;;;;;;;;5036734;28;20830;-80
2021/12/07 04:16:00;;;;;;;0.60;0.40;;;;;;;;;;5034945;28;20679;-81
2021/12/07 04:18:28;;;;;;;1.03;0.60;;;;;;;;;;5038634;28;20206;-79
2021/12/07 04:20:55;;;;;;;0.27;0.27;;;;;;;;;;5043588;28;20203;-80
2021/12/07 04:23:23;;;;;;;0.93;0.37;;;;;;;;;;5035309;28;20295;-81
2021/12/07 04:25:51;;;;;;;1.83;0.40;;;;;;;;;;5037460;28;20314;-81
2021/12/07 04:28:18;;;;;;;0.40;0.30;;;;;;;;;;5042825;28;20238;-82
2021/12/07 04:30:46;;;;;;;1.03;0.30;;;;;;;;;;5043095;28;20255;-80
2021/12/07 04:33:14;;;;;;;0.97;0.40;;;;;;;;;;5036911;28;20929;-83
2021/12/07 04:35:42;;;;;;;0.70;0.30;;;;;;;;;;5045616;28;20292;-82
2021/12/07 04:38:10;;;;;;;3.00;0.60;;;;;;;;;;5036203;28;20199;-83
2021/12/07 04:40:38;;;;;;;1.57;0.50;;;;;;;;;;5036214;28;20212;-80
2021/12/07 04:43:06;;;;;;;1.53;0.83;;;;;;;;;;5032351;28;20203;-80
2021/12/07 04:45:47;;;;;;;1.20;0.80;;;;;;;;;;5033627;28;20662;-80
2021/12/07 04:48:37;;;;;;;1.43;0.90;;;;;;;;;;5034164;28;20603;-80
2021/12/07 04:59:20;;;;;;;1.60;1.07;;;;;;;;;;5035395;28;20679;-80
2021/12/07 05:01:47;;;;;;;3.33;1.10;;;;;;;;;;5041534;28;20223;-81
2021/12/07 05:04:19;;;;;;;2.03;1.00;;;;;;;;;;5037318;28;20203;-80
2021/12/07 05:06:49;;;;;;;1.60;1.00;;;;;;;;;;5040975;28;20220;-81
2021/12/07 05:09:39;;;;;;;2.53;1.10;;;;;;;;;;5035460;28;20254;-80
2021/12/07 05:12:28;;;;;;;3.40;1.47;;;;;;;;;;5036395;28;20287;-81
2021/12/07 05:15:03;;;;;;;2.57;1.10;;;;;;;;;;5041815;28;20655;-82
2021/12/07 05:39:35;;;;;;;3.60;2.37;;;;;;;;;;5036876;28;20226;-81
2021/12/07 05:42:02;;;;;;;3.23;2.40;;;;;;;;;;5037272;28;20233;-81
2021/12/07 05:44:31;;;;;;;4.70;2.80;;;;;;;;;;5033882;28;20223;-81
2021/12/07 05:46:58;;;;;;;3.80;2.37;;;;;;;;;;5036370;28;20207;-81
2021/12/07 05:49:25;;;;;;;4.13;2.57;;;;;;;;;;5035415;28;20324;-82
2021/12/07 05:51:53;;;;;;;5.63;2.73;;;;;;;;;;5034479;28;20295;-82
2021/12/07 05:54:20;;;;;;;5.00;2.93;;;;;;;;;;5035916;28;20550;-79
2021/12/07 05:56:47;;;;;;;6.30;3.33;;;;;;;;;;5034611;28;20293;-81
2021/12/07 05:59:14;;;;;;;6.37;3.57;;;;;;;;;;5037468;28;20352;-81
2021/12/07 06:01:43;;;;;;;6.33;3.20;;;;;;;;;;5037522;28;20303;-81
2021/12/07 06:04:10;;;;;;;6.97;3.93;;;;;;;;;;5038196;28;20210;-82
2021/12/07 06:06:38;;;;;;;6.97;3.40;;;;;;;;;;5041883;28;20263;-81
2021/12/07 06:09:06;;;;;;;6.90;4.03;;;;;;;;;;5036003;28;20210;-82
2021/12/07 06:11:33;;;;;;;5.93;3.87;;;;;;;;;;5039547;28;20730;-81
2021/12/07 06:14:00;;;;;;;5.50;3.80;;;;;;;;;;5038240;28;20226;-81
2021/12/07 06:16:30;;;;;;;9.80;3.93;;;;;;;;;;5033801;28;20763;-81
2021/12/07 06:18:59;;;;;;;9.17;3.93;;;;;;;;;;5036797;28;20262;-81
2021/12/07 06:21:28;;;;;;;9.13;5.37;;;;;;;;;;5034886;28;20290;-81
2021/12/07 06:23:56;;;;;;;8.93;5.23;;;;;;;;;;5038713;28;20219;-81
2021/12/07 06:26:23;;;;;;;14.17;6.77;;;;;;;;;;5038315;28;20229;-80
2021/12/07 06:28:50;;;;;;;12.53;5.63;;;;;;;;;;5042657;28;20270;-80
2021/12/07 06:31:17;;;;;;;29.70;14.23;;;;;;;;;;5053922;28;20274;-79
2021/12/07 06:33:45;;;;;;;16.10;8.80;;;;;;;;;;5031028;28;20223;-79
2021/12/07 06:36:15;;;;;;;13.90;6.70;;;;;;;;;;5033255;28;20643;-79
2021/12/07 06:38:42;;;;;;;17.23;6.70;;;;;;;;;;5030530;28;20200;-80
2021/12/07 06:41:09;;;;;;;15.83;6.90;;;;;;;;;;5036905;28;20674;-80
2021/12/07 06:43:37;;;;;;;21.37;8.10;;;;;;;;;;5036996;28;20298;-80
2021/12/07 06:46:04;;;;;;;17.20;7.70;;;;;;;;;;5033512;28;20242;-79
2021/12/07 06:48:31;;;;;;;16.47;7.23;;;;;;;;;;5032550;28;20638;-78
2021/12/07 06:50:59;;;;;;;21.38;10.07;;;;;;;;;;5033477;28;20546;-80
2021/12/07 06:53:29;;;;;;;16.53;7.23;;;;;;;;;;5040326;28;20299;-80
2021/12/07 06:55:57;;;;;;;19.23;7.10;;;;;;;;;;5039174;28;20738;-80
2021/12/07 06:58:24;;;;;;;15.70;6.80;;;;;;;;;;5037864;28;22146;-80
2021/12/07 07:00:51;;;;;;;15.27;7.43;;;;;;;;;;5040385;28;20200;-80
2021/12/07 07:03:18;;;;;;;14.73;7.80;;;;;;;;;;5035045;28;20231;-80
2021/12/07 07:05:46;;;;;;;15.43;5.20;;;;;;;;;;5035598;28;20780;-80
2021/12/07 07:08:13;;;;;;;18.70;7.33;;;;;;;;;;5040753;28;21767;-81
2021/12/07 07:10:42;;;;;;;17.37;7.10;;;;;;;;;;5027710;28;20338;-80
2021/12/07 07:13:09;;;;;;;11.40;6.30;;;;;;;;;;5026648;28;20694;-80
2021/12/07 07:15:36;;;;;;;13.93;6.40;;;;;;;;;;5026459;28;21070;-80
2021/12/07 07:18:04;;;;;;;10.17;6.33;;;;;;;;;;5029057;28;20696;-81
2021/12/07 07:20:31;;;;;;;9.70;5.53;;;;;;;;;;5028726;28;20747;-81
2021/12/07 07:22:58;;;;;;;11.07;5.50;;;;;;;;;;5041134;28;20290;-81
2021/12/07 07:25:25;;;;;;;15.00;6.90;;;;;;;;;;5033145;28;20333;-80
2021/12/07 07:27:54;;;;;;;11.03;5.13;;;;;;;;;;5028328;28;20195;-81
2021/12/07 07:30:21;;;;;;;52.03;31.27;;;;;;;;;;5034461;28;20689;-81
2021/12/07 07:32:50;;;;;;;15.83;7.33;;;;;;;;;;5038860;28;20234;-81
2021/12/07 07:35:18;;;;;;;20.30;9.07;;;;;;;;;;5031666;28;20247;-81
2021/12/07 07:37:46;;;;;;;10.87;5.83;;;;;;;;;;5032625;28;20293;-80
2021/12/07 07:40:14;;;;;;;15.13;6.73;;;;;;;;;;5037320;28;20200;-80
2021/12/07 07:42:42;;;;;;;15.43;6.40;;;;;;;;;;5032997;28;20272;-81
2021/12/07 07:45:11;;;;;;;15.27;6.87;;;;;;;;;;5031630;28;20229;-81
2021/12/07 07:47:38;;;;;;;13.17;7.80;;;;;;;;;;5035223;28;20207;-81
2021/12/07 07:50:07;;;;;;;16.93;7.57;;;;;;;;;;5035100;28;20847;-80
2021/12/07 07:52:34;;;;;;;15.00;6.97;;;;;;;;;;5037722;28;20309;-80
2021/12/07 07:55:02;;;;;;;19.63;6.80;;;;;;;;;;5033025;28;20314;-81
2021/12/07 07:57:29;;;;;;;21.40;7.30;;;;;;;;;;5035543;28;20311;-83
2021/12/07 07:59:56;;;;;;;19.30;7.73;;;;;;;;;;5029868;28;20290;-81
2021/12/07 08:02:25;;;;;;;21.57;6.93;;;;;;;;;;5032490;28;20294;-81
2021/12/07 08:04:52;;;;;;;17.47;9.93;;;;;;;;;;5040918;28;20257;-81
2021/12/07 08:07:19;;;;;;;20.60;7.60;;;;;;;;;;5036087;28;20199;-81
2021/12/07 08:09:46;;;;;;;25.13;8.37;;;;;;;;;;5039301;28;20234;-81
2021/12/07 08:12:14;;;;;;;18.27;7.47;;;;;;;;;;5033544;28;20204;-81
2021/12/07 08:14:41;;;;;;;22.70;7.60;;;;;;;;;;5035350;28;20693;-81
2021/12/07 08:17:08;;;;;;;31.43;8.57;;;;;;;;;;5040613;28;20310;-81
2021/12/07 08:19:37;;;;;;;26.67;7.50;;;;;;;;;;5038369;28;20243;-81
2021/12/07 08:22:05;;;;;;;21.30;7.37;;;;;;;;;;5038045;28;20641;-81
2021/12/07 08:24:32;;;;;;;28.13;9.20;;;;;;;;;;5039460;28;20230;-81
2021/12/07 08:26:59;;;;;;;32.90;9.27;;;;;;;;;;5039116;28;20282;-81
2021/12/07 08:29:26;;;;;;;24.33;9.57;;;;;;;;;;5040783;28;20289;-81
2021/12/07 08:31:53;;;;;;;20.90;8.23;;;;;;;;;;5041238;28;20232;-81
2021/12/07 08:34:21;;;;;;;25.63;9.33;;;;;;;;;;5038908;28;20247;-81
2021/12/07 08:36:49;;;;;;;23.87;8.37;;;;;;;;;;5044705;28;20254;-81
2021/12/07 08:39:16;;;;;;;21.77;9.33;;;;;;;;;;5034207;28;20239;-81
2021/12/07 08:41:44;;;;;;;35.73;9.83;;;;;;;;;;5035377;28;20229;-82
2021/12/07 08:44:12;;;;;;;21.23;9.10;;;;;;;;;;5036738;28;20298;-81
2021/12/07 08:46:40;;;;;;;20.43;9.73;;;;;;;;;;5038855;28;20262;-81
2021/12/07 08:49:07;;;;;;;31.57;10.87;;;;;;;;;;5038705;28;20216;-82
2021/12/07 08:51:34;;;;;;;29.07;10.37;;;;;;;;;;5038714;28;20218;-81
2021/12/07 08:54:19;;;;;;;27.83;10.10;;;;;;;;;;5040870;28;20237;-80
2021/12/07 08:59:40;;;;;;;29.63;10.30;;;;;;;;;;5039106;28;20660;-82
2021/12/07 09:02:07;;;;;;;21.63;9.80;;;;;;;;;;5039836;28;20582;-82
2021/12/07 09:04:35;;;;;;;25.73;10.60;;;;;;;;;;5044946;28;20367;-83
2021/12/07 09:07:02;;;;;;;37.33;15.77;;;;;;;;;;5038939;28;20649;-82
2021/12/07 09:09:31;;;;;;;49.37;20.90;;;;;;;;;;5033643;28;20195;-82
2021/12/07 09:11:58;;;;;;;52.00;23.57;;;;;;;;;;5042377;28;20199;-81
2021/12/07 09:14:26;;;;;;;38.33;18.00;;;;;;;;;;5038642;28;20251;-82
2021/12/07 09:16:53;;;;;;;46.10;20.13;;;;;;;;;;5043065;28;20234;-82
2021/12/07 09:19:21;;;;;;;16.33;7.43;;;;;;;;;;5043174;28;20237;-82
2021/12/07 09:21:48;;;;;;;19.77;8.73;;;;;;;;;;5041866;28;20215;-82
2021/12/07 09:24:15;;;;;;;21.17;6.70;;;;;;;;;;5039096;28;20223;-82
2021/12/07 09:26:44;;;;;;;17.47;6.23;;;;;;;;;;5041964;28;20235;-82
2021/12/07 09:29:11;;;;;;;13.07;6.53;;;;;;;;;;5037785;28;20294;-83
2021/12/07 09:31:47;;;;;;;13.63;5.83;;;;;;;;;;5087439;22;20257;-85
2021/12/07 09:34:15;;;;;;;15.87;5.87;;;;;;;;;;5070905;28;20202;-83
2021/12/07 09:36:46;;;;;;;16.30;6.77;;;;;;;;;;5065453;28;20262;-85
2021/12/07 09:39:14;;;;;;;16.10;6.20;;;;;;;;;;5070323;28;20204;-84
2021/12/07 09:41:48;;;;;;;12.73;4.77;;;;;;;;;;5053621;28;20243;-84
2021/12/07 09:44:18;;;;;;;13.13;4.97;;;;;;;;;;5050875;28;20212;-83
2021/12/07 09:46:50;;;;;;;22.67;10.30;;;;;;;;;;5055082;28;20201;-83
2021/12/07 09:49:22;;;;;;;14.33;6.30;;;;;;;;;;5059874;28;20199;-83
2021/12/07 09:52:01;;;;;;;42.33;22.07;;;;;;;;;;5052766;28;20213;-84
2021/12/07 09:54:28;;;;;;;25.53;13.80;;;;;;;;;;5043708;28;20275;-83
2021/12/07 09:59:38;;;;;;;13.40;5.70;;;;;;;;;;5057048;28;20250;-83
2021/12/07 10:02:11;;;;;;;13.47;4.67;;;;;;;;;;5053819;28;20269;-84
2021/12/07 10:04:41;;;;;;;17.10;4.90;;;;;;;;;;5052020;28;20297;-83
2021/12/07 10:07:13;;;;;;;14.27;4.80;;;;;;;;;;5052370;28;20200;-84
2021/12/07 10:09:41;;;;;;;17.97;4.53;;;;;;;;;;5052504;28;20249;-84
2021/12/07 10:12:10;;;;;;;13.90;4.57;;;;;;;;;;5050584;28;20257;-83
2021/12/07 10:14:42;;;;;;;9.53;4.33;;;;;;;;;;5045082;28;20384;-83
2021/12/07 10:20:04;;;;;;;11.37;5.23;;;;;;;;;;5054747;28;20226;-83
2021/12/07 10:22:36;;;;;;;10.53;4.30;;;;;;;;;;5056788;28;20238;-84
2021/12/07 10:25:04;;;;;;;13.00;4.90;;;;;;;;;;5053142;28;20223;-84
2021/12/07 10:27:48;;;;;;;11.53;4.67;;;;;;;;;;5055048;28;20245;-84
2021/12/07 10:30:20;;;;;;;11.70;4.77;;;;;;;;;;5061180;28;20270;-84
2021/12/07 10:32:57;;;;;;;17.10;6.33;;;;;;;;;;5058327;28;20211;-85
2021/12/07 10:35:29;;;;;;;18.67;6.00;;;;;;;;;;5058552;28;20225;-84
2021/12/07 10:38:15;;;;;;;12.80;5.20;;;;;;;;;;5055871;28;20223;-84
2021/12/07 10:41:01;;;;;;;13.63;3.63;;;;;;;;;;5056690;28;20230;-84
2021/12/07 10:43:43;;;;;;;13.97;4.77;;;;;;;;;;5055763;28;20269;-84
2021/12/07 10:46:33;;;;;;;15.67;4.87;;;;;;;;;;5056706;28;20294;-84
2021/12/07 10:49:25;;;;;;;9.50;3.70;;;;;;;;;;5054040;28;20199;-85
2021/12/07 10:52:01;;;;;;;6.13;2.70;;;;;;;;;;5041609;28;20260;-84
2021/12/07 10:54:29;;;;;;;13.67;3.30;;;;;;;;;;5058284;28;20202;-84
2021/12/07 10:56:56;;;;;;;6.63;2.60;;;;;;;;;;5058560;28;20246;-84
2021/12/07 10:59:25;;;;;;;10.80;2.70;;;;;;;;;;5053082;28;20207;-84
2021/12/07 11:01:54;;;;;;;7.37;2.97;;;;;;;;;;5056346;28;20734;-84
2021/12/07 11:04:29;;;;;;;5.43;2.20;;;;;;;;;;5055295;28;20218;-84
2021/12/07 11:07:11;;;;;;;7.20;2.17;;;;;;;;;;5053991;28;20249;-83
2021/12/07 11:09:39;;;;;;;10.97;3.53;;;;;;;;;;5054759;28;20250;-84
2021/12/07 11:12:07;;;;;;;8.90;2.90;;;;;;;;;;5058354;28;20199;-84
2021/12/07 11:14:49;;;;;;;7.37;2.90;;;;;;;;;;5053971;28;20298;-84
2021/12/07 11:17:16;;;;;;;5.03;2.33;;;;;;;;;;5054024;28;21018;-84
2021/12/07 11:19:44;;;;;;;14.90;2.70;;;;;;;;;;5056047;28;20281;-84
2021/12/07 11:22:14;;;;;;;10.27;2.30;;;;;;;;;;5055559;28;20927;-85
2021/12/07 11:24:43;;;;;;;13.53;2.47;;;;;;;;;;5059258;28;20203;-84
2021/12/07 11:30:06;;;;;;;11.23;2.37;;;;;;;;;;5059227;28;20918;-84
2021/12/07 11:32:34;;;;;;;8.47;2.43;;;;;;;;;;5061368;28;20215;-84
2021/12/07 11:35:08;;;;;;;10.40;2.33;;;;;;;;;;5065190;28;20215;-83
2021/12/07 11:37:36;;;;;;;12.90;2.83;;;;;;;;;;5057069;28;20254;-83
2021/12/07 11:40:06;;;;;;;7.47;2.30;;;;;;;;;;5052548;28;20285;-84
2021/12/07 11:42:37;;;;;;;13.30;2.30;;;;;;;;;;5052730;28;20211;-83
2021/12/07 11:45:07;;;;;;;7.57;2.73;;;;;;;;;;5054332;28;20226;-83
2021/12/07 11:47:36;;;;;;;12.97;2.57;;;;;;;;;;5054096;28;20274;-83
2021/12/07 11:50:11;;;;;;;8.43;2.00;;;;;;;;;;5053821;28;20660;-84
2021/12/07 11:52:38;;;;;;;7.03;2.23;;;;;;;;;;5052899;28;20297;-85
2021/12/07 11:55:06;;;;;;;10.17;2.07;;;;;;;;;;5055031;28;20309;-84
2021/12/07 11:57:33;;;;;;;11.43;2.73;;;;;;;;;;5052847;28;20230;-85
2021/12/07 12:00:00;;;;;;;11.00;2.23;;;;;;;;;;5054700;28;20233;-85
2021/12/07 12:02:29;;;;;;;12.03;2.40;;;;;;;;;;5054126;28;20214;-86
2021/12/07 12:04:56;;;;;;;9.03;2.30;;;;;;;;;;5055242;28;20226;-86
2021/12/07 12:07:24;;;;;;;6.27;2.07;;;;;;;;;;5057074;28;20647;-85
2021/12/07 12:09:53;;;;;;;9.43;2.30;;;;;;;;;;5056047;28;20231;-85
2021/12/07 12:12:25;;;;;;;5.80;1.83;;;;;;;;;;5052497;28;20288;-87
2021/12/07 12:14:58;;;;;;;11.50;2.47;;;;;;;;;;5055354;28;20663;-85
2021/12/07 12:17:33;;;;;;;16.47;2.40;;;;;;;;;;5053184;28;20907;-84
2021/12/07 12:20:10;;;;;;;7.57;2.30;;;;;;;;;;5054178;28;20230;-85
2021/12/07 12:22:39;;;;;;;5.50;1.93;;;;;;;;;;5057056;28;20272;-85
2021/12/07 12:25:08;;;;;;;10.13;2.20;;;;;;;;;;5058674;28;20229;-85
2021/12/07 12:27:37;;;;;;;7.67;2.27;;;;;;;;;;5055812;28;20668;-86
2021/12/07 12:30:17;;;;;;;5.90;2.53;;;;;;;;;;5057911;28;20235;-86
2021/12/07 12:32:46;;;;;;;13.67;2.43;;;;;;;;;;5056149;28;20211;-86
2021/12/07 12:35:15;;;;;;;8.07;2.43;;;;;;;;;;5073883;28;20277;-84
2021/12/07 12:37:46;;;;;;;7.37;2.93;;;;;;;;;;5057511;28;20223;-86
2021/12/07 12:40:20;;;;;;;7.63;2.60;;;;;;;;;;5054122;28;20258;-86
2021/12/07 12:42:49;;;;;;;10.70;2.03;;;;;;;;;;5055400;28;20206;-85
2021/12/07 12:45:20;;;;;;;11.80;2.30;;;;;;;;;;5052827;28;20668;-85
2021/12/07 12:47:55;;;;;;;8.73;2.63;;;;;;;;;;5051661;28;20203;-85
2021/12/07 12:50:24;;;;;;;7.87;2.30;;;;;;;;;;5053656;28;20222;-86
2021/12/07 12:52:53;;;;;;;11.70;2.30;;;;;;;;;;5050468;28;20332;-84
2021/12/07 12:55:36;;;;;;;11.93;2.80;;;;;;;;;;5049729;28;20210;-86
2021/12/07 12:58:04;;;;;;;7.03;2.03;;;;;;;;;;5053698;28;20642;-83
2021/12/07 13:00:50;;;;;;;9.63;2.20;;;;;;;;;;5055707;28;20230;-85
2021/12/07 13:03:19;;;;;;;12.33;3.03;;;;;;;;;;5053785;28;20199;-85
2021/12/07 13:05:59;;;;;;;9.97;2.33;;;;;;;;;;5050812;28;20249;-85
2021/12/07 13:08:26;;;;;;;9.17;2.20;;;;;;;;;;5053542;28;20221;-85
2021/12/07 13:10:58;;;;;;;8.27;2.40;;;;;;;;;;5056739;28;20265;-85
2021/12/07 13:13:31;;;;;;;7.47;2.10;;;;;;;;;;5055103;28;20207;-86
2021/12/07 13:16:12;;;;;;;13.37;2.40;;;;;;;;;;5059259;28;20198;-86
2021/12/07 13:18:43;;;;;;;14.00;2.43;;;;;;;;;;5056889;28;20219;-85
2021/12/07 13:21:19;;;;;;;9.77;2.30;;;;;;;;;;5057218;28;20233;-86
2021/12/07 13:23:57;;;;;;;11.83;2.23;;;;;;;;;;5056643;28;20639;-85
2021/12/07 13:26:25;;;;;;;10.07;2.60;;;;;;;;;;5053585;28;20214;-85
2021/12/07 13:29:02;;;;;;;11.17;3.40;;;;;;;;;;5053603;28;20224;-84
2021/12/07 13:31:36;;;;;;;16.53;3.63;;;;;;;;;;5057448;28;20230;-86
2021/12/07 13:34:05;;;;;;;17.20;5.83;;;;;;;;;;5050166;28;20218;-85
2021/12/07 13:36:34;;;;;;;54.73;23.60;;;;;;;;;;5054282;28;20218;-85
2021/12/07 13:39:07;;;;;;;18.23;8.03;;;;;;;;;;5058180;28;20250;-86
2021/12/07 13:41:34;;;;;;;98.30;38.47;;;;;;;;;;5053307;28;20261;-84
2021/12/07 13:44:02;;;;;;;17.00;6.30;;;;;;;;;;5056168;28;20203;-84
2021/12/07 13:46:30;;;;;;;8.63;2.63;;;;;;;;;;5056178;28;20200;-85
2021/12/07 13:49:06;;;;;;;11.23;2.60;;;;;;;;;;5058683;28;20224;-85
2021/12/07 13:51:34;;;;;;;15.03;3.10;;;;;;;;;;5058220;28;20234;-86
2021/12/07 13:54:04;;;;;;;11.73;4.87;;;;;;;;;;5053587;28;20257;-86
2021/12/07 13:56:33;;;;;;;25.30;8.00;;;;;;;;;;5055960;28;20816;-85
2021/12/07 13:59:02;;;;;;;11.73;4.40;;;;;;;;;;5054127;28;20222;-85
2021/12/07 14:01:30;;;;;;;6.23;2.57;;;;;;;;;;5054198;28;20257;-85
2021/12/07 14:03:58;;;;;;;9.17;4.37;;;;;;;;;;5055052;28;20211;-85
2021/12/07 14:06:27;;;;;;;11.37;4.53;;;;;;;;;;5054059;28;20214;-85
2021/12/07 14:08:55;;;;;;;8.77;2.03;;;;;;;;;;5057272;28;20210;-86
2021/12/07 14:11:23;;;;;;;10.17;3.30;;;;;;;;;;5051205;28;20643;-85
2021/12/07 14:13:52;;;;;;;9.13;1.80;;;;;;;;;;5055461;28;20245;-85
2021/12/07 14:16:24;;;;;;;8.43;1.90;;;;;;;;;;5050187;28;20252;-85
2021/12/07 14:18:51;;;;;;;10.00;2.00;;;;;;;;;;5050923;28;20308;-86
2021/12/07 14:21:19;;;;;;;11.70;1.73;;;;;;;;;;5052122;28;20710;-86
2021/12/07 14:23:50;;;;;;;21.03;6.33;;;;;;;;;;5053190;28;20211;-90
2021/12/07 14:26:18;;;;;;;5.83;2.30;;;;;;;;;;5053218;28;20203;-85
2021/12/07 14:28:47;;;;;;;9.73;3.20;;;;;;;;;;5053777;28;20203;-86
2021/12/07 14:31:16;;;;;;;12.77;2.37;;;;;;;;;;5051091;28;20239;-86
2021/12/07 14:33:45;;;;;;;10.67;3.13;;;;;;;;;;5052795;28;20207;-86
2021/12/07 14:36:13;;;;;;;31.17;10.90;;;;;;;;;;5054247;28;20203;-86
2021/12/07 14:38:41;;;;;;;60.23;25.80;;;;;;;;;;5050537;28;20219;-87
2021/12/07 14:41:11;;;;;;;47.77;20.57;;;;;;;;;;5053424;28;20227;-87
2021/12/07 14:43:39;;;;;;;43.37;16.40;;;;;;;;;;5049986;28;20221;-86
2021/12/07 14:46:08;;;;;;;15.87;5.67;;;;;;;;;;5053687;28;20203;-85
2021/12/07 14:48:39;;;;;;;33.53;13.97;;;;;;;;;;5051362;28;20261;-85
2021/12/07 14:51:07;;;;;;;27.43;9.60;;;;;;;;;;5051856;28;20607;-84
2021/12/07 14:53:36;;;;;;;22.80;10.77;;;;;;;;;;5051514;28;20710;-85
2021/12/07 14:56:05;;;;;;;21.40;9.10;;;;;;;;;;5053523;28;20811;-86
2021/12/07 14:58:37;;;;;;;24.90;9.10;;;;;;;;;;5056301;28;20219;-84
2021/12/07 15:01:06;;;;;;;13.20;6.40;;;;;;;;;;5055387;28;20238;-85
2021/12/07 15:03:40;;;;;;;14.53;4.30;;;;;;;;;;5055125;28;20207;-84
2021/12/07 15:06:08;;;;;;;10.43;2.93;;;;;;;;;;5054212;28;20228;-85
2021/12/07 15:08:35;;;;;;;11.60;4.50;;;;;;;;;;5058398;28;20203;-85
2021/12/07 15:11:03;;;;;;;10.07;3.90;;;;;;;;;;5055642;28;20596;-84
2021/12/07 15:13:32;;;;;;;14.77;5.73;;;;;;;;;;5051288;28;20235;-84
2021/12/07 15:16:01;;;;;;;9.33;3.30;;;;;;;;;;5052037;28;20281;-83
2021/12/07 15:18:30;;;;;;;9.00;3.30;;;;;;;;;;5049352;28;20222;-84
2021/12/07 15:20:57;;;;;;;12.43;4.07;;;;;;;;;;5070044;28;20207;-83
2021/12/07 15:23:25;;;;;;;14.73;5.37;;;;;;;;;;5056691;28;20267;-84
2021/12/07 15:25:53;;;;;;;14.33;4.70;;;;;;;;;;5047012;28;20210;-84
2021/12/07 15:28:20;;;;;;;13.47;4.60;;;;;;;;;;5053982;28;20270;-83
2021/12/07 15:30:49;;;;;;;9.80;4.50;;;;;;;;;;5044897;22;20227;-84
2021/12/07 15:46:02;;;;;;;16.60;5.27;;;;;;;;;;4961875;28;20285;-85
2021/12/07 15:51:31;;;;;;;7.30;3.00;;;;;;;;;;4984592;28;20309;-84
2021/12/07 15:54:03;;;;;;;9.47;2.50;;;;;;;;;;5012590;28;20616;-85
2021/12/07 15:56:38;;;;;;;11.17;3.37;;;;;;;;;;5013810;28;20216;-85
2021/12/07 15:59:13;;;;;;;11.43;5.17;;;;;;;;;;5011173;28;20219;-84
2021/12/07 16:10:40;;;;;;;21.00;6.47;;;;;;;;;;5016843;28;20215;-80
2021/12/07 16:13:14;;;;;;;22.47;6.33;;;;;;;;;;5017065;28;20592;-81
2021/12/07 16:15:43;;;;;;;14.37;5.00;;;;;;;;;;5015393;28;20208;-83
2021/12/07 16:18:19;;;;;;;19.07;6.83;;;;;;;;;;5007532;28;20221;-83
2021/12/07 16:20:46;;;;;;;25.60;8.93;;;;;;;;;;5014513;28;20221;-84
2021/12/07 17:06:29;;;;;;;17.30;4.50;;;;;;;;;;4969506;28;20241;-83
2021/12/07 17:11:52;;;;;;;10.13;4.27;;;;;;;;;;5051828;22;20247;-81
2021/12/07 17:14:19;;;;;;;15.17;3.60;;;;;;;;;;5035203;28;20238;-82
2021/12/07 17:16:46;;;;;;;10.40;3.43;;;;;;;;;;5034116;28;20214;-81
2021/12/07 17:19:14;;;;;;;10.93;3.30;;;;;;;;;;5021204;28;20231;-81
2021/12/07 17:21:42;;;;;;;9.90;4.80;;;;;;;;;;5026282;28;20235;-80
2021/12/07 17:24:10;;;;;;;12.73;5.23;;;;;;;;;;5030567;28;20203;-80
2021/12/07 17:26:37;;;;;;;14.07;4.50;;;;;;;;;;5029159;28;20459;-81